Time;durP1;ratioP1;P1;durP2;ratioP2;P2;SDS_P1;SDS_P2;PMS_P1;PMS_P2;Temp;Humidity;BMP_temperature;BMP_pressure;BME280_temperature;BME280_humidity;BME280_pressure;Samples;Min_cycle;Max_cycle;Signal;HPM_P1;HPM_P2
2022/06/24 00:00:15;;;;;;;;;;;;;;;20.83;100.00;99464.69;5011208;28;19983;-88
2022/06/24 00:02:41;;;;;;;;;;;;;;;20.81;100.00;99463.09;5010178;28;19931;-85
2022/06/24 00:05:07;;;;;;;;;;;;;;;20.76;100.00;99455.38;5010839;28;19946;-89
2022/06/24 00:07:53;;;;;;;;;;;;;;;20.72;100.00;99461.16;5009678;28;20315;-89
2022/06/24 00:10:20;;;;;;;;;;;;;;;20.71;100.00;99468.41;5010408;28;19955;-85
2022/06/24 00:12:46;;;;;;;;;;;;;;;20.70;100.00;99452.31;4999012;28;19936;-89
2022/06/24 00:15:11;;;;;;;;;;;;;;;20.67;100.00;99458.81;4992789;28;20333;-84
2022/06/24 00:17:37;;;;;;;;;;;;;;;20.66;100.00;99461.66;5011877;28;19977;-88
2022/06/24 00:20:06;;;;;;;;;;;;;;;20.65;100.00;99454.53;4994421;28;19961;-89
2022/06/24 00:22:40;;;;;;;;;;;;;;;20.61;100.00;99443.13;5012196;28;19927;-84
2022/06/24 00:25:06;;;;;;;;;;;;;;;20.61;100.00;99437.72;5011174;28;19931;-88
2022/06/24 00:27:31;;;;;;;;;;;;;;;20.63;100.00;99441.16;5005584;28;20353;-88
2022/06/24 00:29:56;;;;;;;;;;;;;;;20.69;100.00;99440.63;4995889;28;20023;-84
2022/06/24 00:32:29;;;;;;;;;;;;;;;20.64;100.00;99436.63;4994338;28;20419;-85
2022/06/24 00:35:00;;;;;;;;;;;;;;;20.65;100.00;99454.53;4994417;28;19938;-84
2022/06/24 00:37:28;;;;;;;;;;;;;;;20.61;100.00;99453.06;4994241;28;19942;-88
2022/06/24 00:39:56;;;;;;;;;;;;;;;20.61;100.00;99461.16;4993919;28;19929;-89
2022/06/24 00:42:22;;;;;;;;;;;;;;;20.57;100.00;99467.81;5012159;28;20369;-88
2022/06/24 00:44:56;;;;;;;;;;;;;;;20.54;100.00;99474.31;5010464;28;19981;-88
2022/06/24 00:47:22;;;;;;;;;;;;;;;20.53;100.00;99478.03;5011209;28;20084;-84
2022/06/24 00:49:54;;;;;;;;;;;;;;;20.52;100.00;99470.91;5009548;28;20088;-89
2022/06/24 00:52:19;;;;;;;;;;;;;;;20.51;100.00;99473.75;5009970;28;20052;-88
2022/06/24 00:54:45;;;;;;;;;;;;;;;20.51;100.00;99471.88;5010045;28;19975;-85
2022/06/24 00:57:10;;;;;;;;;;;;;;;20.53;100.00;99471.75;5009661;28;19931;-85
2022/06/24 00:59:37;;;;;;;;;;;;;;;20.53;100.00;99480.72;5013206;28;20409;-89
2022/06/24 01:02:06;;;;;;;;;;;;;;;20.54;100.00;99481.59;5013815;28;19996;-87
2022/06/24 01:04:33;;;;;;;;;;;;;;;20.48;100.00;99496.44;4997213;28;19932;-89
2022/06/24 01:06:58;;;;;;;;;;;;;;;20.48;100.00;99504.56;5005254;28;19951;-85
2022/06/24 01:09:25;;;;;;;;;;;;;;;20.51;100.00;99496.19;4996462;28;20393;-90
2022/06/24 01:11:51;;;;;;;;;;;;;;;20.47;100.00;99497.44;5014357;28;19930;-84
2022/06/24 01:14:17;;;;;;;;;;;;;;;20.45;100.00;99494.00;5013206;28;20321;-89
2022/06/24 01:16:42;;;;;;;;;;;;;;;20.48;100.00;99501.00;5012684;28;19936;-84
2022/06/24 01:19:09;;;;;;;;;;;;;;;20.48;100.00;99496.44;5009681;28;19935;-89
2022/06/24 01:21:38;;;;;;;;;;;;;;;20.50;100.00;99486.38;4996585;28;19947;-85
2022/06/24 01:24:08;;;;;;;;;;;;;;;20.50;100.00;99493.63;5015232;28;19999;-85
2022/06/24 01:26:34;;;;;;;;;;;;;;;20.51;100.00;99476.44;5000642;28;19925;-89
2022/06/24 01:28:59;;;;;;;;;;;;;;;20.49;100.00;99470.31;5035342;28;20301;-90
2022/06/24 01:31:25;;;;;;;;;;;;;;;20.50;100.00;99478.28;5017082;28;19929;-89
2022/06/24 01:33:50;;;;;;;;;;;;;;;20.47;100.00;99477.66;5016689;28;19952;-85
2022/06/24 01:36:15;;;;;;;;;;;;;;;20.47;100.00;99481.25;5017244;28;19950;-85
2022/06/24 01:38:41;;;;;;;;;;;;;;;20.45;100.00;99480.50;5035170;28;19933;-85
2022/06/24 01:41:08;;;;;;;;;;;;;;;20.46;100.00;99486.78;5016301;28;20337;-84
2022/06/24 01:43:33;;;;;;;;;;;;;;;20.42;100.00;99491.56;5014936;28;20020;-85
2022/06/24 01:45:59;;;;;;;;;;;;;;;20.35;100.00;99484.06;5015875;28;20032;-85
2022/06/24 01:48:24;;;;;;;;;;;;;;;20.35;100.00;99498.44;5012871;28;19925;-85
2022/06/24 01:50:49;;;;;;;;;;;;;;;20.37;100.00;99492.91;5014204;28;19977;-85
2022/06/24 01:53:14;;;;;;;;;;;;;;;20.35;100.00;99484.94;4996128;28;19965;-85
2022/06/24 01:55:40;;;;;;;;;;;;;;;20.30;100.00;99479.03;5014520;28;19922;-85
2022/06/24 01:58:05;;;;;;;;;;;;;;;20.31;100.00;99482.59;4997195;28;19933;-85
2022/06/24 02:00:31;;;;;;;;;;;;;;;20.27;100.00;99470.31;5014677;28;20312;-85
2022/06/24 02:02:57;;;;;;;;;;;;;;;20.24;100.00;99465.16;4997066;28;19930;-90
2022/06/24 02:05:24;;;;;;;;;;;;;;;20.22;100.00;99457.19;4996974;28;20060;-85
2022/06/24 02:07:50;;;;;;;;;;;;;;;20.23;100.00;99461.59;4996406;28;19969;-85
2022/06/24 02:15:42;;;;;;;;;;;;;;;20.13;100.00;99438.97;4994716;28;19988;-90
2022/06/24 02:18:09;;;;;;;;;;;;;;;20.10;100.00;99433.84;4981635;28;19932;-89
2022/06/24 02:20:34;;;;;;;;;;;;;;;20.08;100.00;99443.06;5013380;28;19952;-85
2022/06/24 02:22:59;;;;;;;;;;;;;;;20.05;100.00;99433.34;5012414;28;20276;-90
2022/06/24 02:25:25;;;;;;;;;;;;;;;20.06;100.00;99437.78;5013533;28;19961;-84
2022/06/24 02:27:50;;;;;;;;;;;;;;;20.01;100.00;99442.69;5008416;28;19929;-85
2022/06/24 02:30:15;;;;;;;;;;;;;;;19.90;100.00;99450.75;5032522;28;19929;-85
2022/06/24 02:32:41;;;;;;;;;;;;;;;19.91;100.00;99446.22;5004320;28;19922;-90
2022/06/24 02:35:06;;;;;;;;;;;;;;;19.92;100.00;99442.56;5012734;28;19927;-90
2022/06/24 02:37:32;;;;;;;;;;;;;;;19.91;100.00;99441.69;4995877;28;19925;-90
2022/06/24 02:40:45;;;;;;;;;;;;;;;19.88;100.00;99447.34;4996014;28;19931;-84
2022/06/24 02:42:43;;;;;;;;;;;;;;;19.87;100.00;99434.81;5013537;28;19935;-84
2022/06/24 02:45:08;;;;;;;;;;;;;;;19.90;100.00;99422.94;4995912;28;20078;-90
2022/06/24 02:47:34;;;;;;;;;;;;;;;19.89;100.00;99422.06;4995470;28;19925;-84
2022/06/24 02:49:59;;;;;;;;;;;;;;;19.87;100.00;99424.00;5013288;28;19934;-91
2022/06/24 02:52:24;;;;;;;;;;;;;;;19.89;100.00;99418.50;4996199;28;20416;-84
2022/06/24 02:54:50;;;;;;;;;;;;;;;19.84;100.00;99416.16;4995453;28;20003;-85
2022/06/24 02:57:15;;;;;;;;;;;;;;;19.83;100.00;99411.75;4995650;28;20132;-90
2022/06/24 02:59:40;;;;;;;;;;;;;;;19.80;100.00;99400.34;4995313;28;19982;-91
2022/06/24 03:02:06;;;;;;;;;;;;;;;19.75;100.00;99400.72;4994972;28;20421;-91
2022/06/24 03:04:31;;;;;;;;;;;;;;;19.75;100.00;99405.25;4994332;28;20017;-90
2022/06/24 03:06:56;;;;;;;;;;;;;;;19.76;100.00;99402.44;4994123;28;19961;-85
2022/06/24 03:09:21;;;;;;;;;;;;;;;19.75;100.00;99398.03;4994193;28;19937;-84
2022/06/24 03:11:47;;;;;;;;;;;;;;;19.67;100.00;99396.91;4994904;28;20280;-89
2022/06/24 03:14:12;;;;;;;;;;;;;;;19.59;100.00;99394.81;4994718;28;20372;-88
2022/06/24 03:16:37;;;;;;;;;;;;;;;19.62;100.00;99392.72;4995288;28;20028;-84
2022/06/24 03:19:04;;;;;;;;;;;;;;;19.63;100.00;99388.19;4995667;28;19927;-91
2022/06/24 03:21:29;;;;;;;;;;;;;;;19.66;100.00;99393.34;4995396;28;19953;-83
2022/06/24 03:23:54;;;;;;;;;;;;;;;19.67;100.00;99393.22;4995287;28;20436;-84
2022/06/24 03:26:21;;;;;;;;;;;;;;;19.63;100.00;99380.09;4996694;28;19939;-84
2022/06/24 03:28:46;;;;;;;;;;;;;;;19.61;100.00;99380.22;5014889;28;19931;-85
2022/06/24 03:31:12;;;;;;;;;;;;;;;19.65;100.00;99376.28;5032168;28;19968;-90
2022/06/24 03:33:38;;;;;;;;;;;;;;;19.65;100.00;99380.84;5013702;28;20409;-84
2022/06/24 03:36:10;;;;;;;;;;;;;;;19.78;100.00;99388.81;5031328;28;19980;-84
2022/06/24 03:38:35;;;;;;;;;;;;;;;19.88;100.00;99381.69;5012884;28;19936;-84
2022/06/24 03:41:01;;;;;;;;;;;;;;;19.93;100.00;99384.88;5029749;28;19945;-84
2022/06/24 03:43:27;;;;;;;;;;;;;;;20.00;100.00;99392.34;5010348;28;19924;-90
2022/06/24 03:46:02;;;;;;;;;;;;;;;20.07;100.00;99393.56;4992806;28;20060;-90
2022/06/24 03:48:27;;;;;;;;;;;;;;;20.11;100.00;99395.06;4993135;28;19930;-91
2022/06/24 03:50:53;;;;;;;;;;;;;;;20.13;100.00;99387.66;5012020;28;20343;-84
2022/06/24 03:53:18;;;;;;;;;;;;;;;20.12;100.00;99404.88;4994639;28;19938;-83
2022/06/24 03:55:48;;;;;;;;;;;;;;;20.12;100.00;99429.16;5012155;28;20385;-90
2022/06/24 03:58:13;;;;;;;;;;;;;;;20.10;100.00;99436.53;4995859;28;20386;-90
2022/06/24 04:00:38;;;;;;;;;;;;;;;20.06;100.00;99429.69;5012787;28;20365;-91
2022/06/24 04:03:04;;;;;;;;;;;;;;;19.99;100.00;99423.03;4994075;28;19966;-82
2022/06/24 04:05:29;;;;;;;;;;;;;;;20.08;100.00;99433.09;4994318;28;20384;-83
2022/06/24 04:07:56;;;;;;;;;;;;;;;20.12;100.00;99429.16;4994448;28;19940;-90
2022/06/24 04:10:21;;;;;;;;;;;;;;;20.10;100.00;99425.72;4994784;28;19936;-84
2022/06/24 04:12:47;;;;;;;;;;;;;;;20.15;100.00;99428.09;4980234;28;19934;-91
2022/06/24 04:15:15;;;;;;;;;;;;;;;20.18;100.00;99427.84;5011496;28;19930;-83
2022/06/24 04:17:40;;;;;;;;;;;;;;;20.21;100.00;99436.56;4994638;28;19938;-84
2022/06/24 04:20:06;;;;;;;;;;;;;;;20.18;100.00;99417.06;5012788;28;19939;-84
2022/06/24 04:22:31;;;;;;;;;;;;;;;20.19;100.00;99419.63;4994238;28;19927;-92
2022/06/24 04:24:57;;;;;;;;;;;;;;;20.28;100.00;99426.97;4994655;28;19963;-90
2022/06/24 04:27:22;;;;;;;;;;;;;;;20.29;100.00;99417.91;5004497;28;19909;-82
2022/06/24 04:29:48;;;;;;;;;;;;;;;20.35;100.00;99414.69;5024749;28;20068;-92
2022/06/24 04:32:13;;;;;;;;;;;;;;;20.38;100.00;99409.03;5011916;28;19927;-92
2022/06/24 04:34:38;;;;;;;;;;;;;;;20.43;100.00;99408.63;4997446;28;19928;-84
2022/06/24 04:37:04;;;;;;;;;;;;;;;20.45;100.00;99407.56;5015320;28;19934;-91
2022/06/24 04:39:29;;;;;;;;;;;;;;;20.47;100.00;99402.88;4997681;28;19935;-84
2022/06/24 04:41:54;;;;;;;;;;;;;;;20.45;100.00;99409.38;5015422;28;19953;-92
2022/06/24 04:44:20;;;;;;;;;;;;;;;20.50;100.00;99412.56;4997967;28;19929;-84
2022/06/24 04:46:45;;;;;;;;;;;;;;;20.54;100.00;99403.22;4997822;28;19940;-91
2022/06/24 04:49:10;;;;;;;;;;;;;;;20.55;100.00;99405.81;5015558;28;19932;-90
2022/06/24 04:51:36;;;;;;;;;;;;;;;20.64;100.00;99405.03;4997879;28;20370;-91
2022/06/24 04:54:01;;;;;;;;;;;;;;;20.72;100.00;99407.09;4998028;28;19933;-84
2022/06/24 04:56:26;;;;;;;;;;;;;;;20.76;100.00;99408.53;5015545;28;19926;-91
2022/06/24 04:58:53;;;;;;;;;;;;;;;20.77;100.00;99404.88;4997465;28;20227;-90
2022/06/24 05:01:19;;;;;;;;;;;;;;;20.85;100.00;99408.66;4996823;28;19953;-84
2022/06/24 05:03:45;;;;;;;;;;;;;;;20.98;100.00;99413.03;5015808;28;20603;-84
2022/06/24 05:06:11;;;;;;;;;;;;;;;21.04;100.00;99409.84;4997363;28;20008;-90
2022/06/24 05:08:36;;;;;;;;;;;;;;;21.07;100.00;99412.28;4997639;28;20380;-89
2022/06/24 05:11:02;;;;;;;;;;;;;;;21.12;100.00;99410.03;4997635;28;19973;-90
2022/06/24 05:13:27;;;;;;;;;;;;;;;21.22;100.00;99406.41;4978231;28;19929;-84
2022/06/24 05:15:53;;;;;;;;;;;;;;;21.36;100.00;99414.22;4977786;28;20409;-90
2022/06/24 05:18:18;;;;;;;;;;;;;;;21.46;100.00;99414.25;4978203;28;20005;-83
2022/06/24 05:20:43;;;;;;;;;;;;;;;21.54;100.00;99411.75;4978003;28;19961;-83
2022/06/24 05:23:08;;;;;;;;;;;;;;;21.68;100.00;99408.72;5002741;28;19929;-90
2022/06/24 05:25:34;;;;;;;;;;;;;;;21.63;100.00;99394.72;5014721;28;19926;-83
2022/06/24 05:28:00;;;;;;;;;;;;;;;21.81;100.00;99414.78;5030100;28;20292;-83
2022/06/24 05:30:25;;;;;;;;;;;;;;;21.81;100.00;99409.38;5016539;28;19926;-82
2022/06/24 05:32:51;;;;;;;;;;;;;;;21.81;100.00;99414.78;5016402;28;19927;-82
2022/06/24 05:35:16;;;;;;;;;;;;;;;21.81;100.00;99421.03;5034800;28;19925;-89
2022/06/24 05:37:41;;;;;;;;;;;;;;;21.84;100.00;99419.94;5016795;28;20032;-88
2022/06/24 05:40:07;;;;;;;;;;;;;;;21.88;100.00;99415.94;5016831;28;19927;-83
2022/06/24 05:42:33;;;;;;;;;;;;;;;22.01;100.00;99416.56;5021227;28;19926;-83
2022/06/24 05:44:58;;;;;;;;;;;;;;;22.20;100.00;99416.66;5011923;28;20025;-89
2022/06/24 05:47:23;;;;;;;;;;;;;;;22.33;100.00;99406.44;4996687;28;19929;-82
2022/06/24 05:49:49;;;;;;;;;;;;;;;22.48;100.00;99410.47;5012863;28;19938;-89
2022/06/24 05:52:14;;;;;;;;;;;;;;;22.60;100.00;99411.25;4996208;28;19998;-88
2022/06/24 05:57:23;;;;;;;;;;;;;;;22.99;100.00;99411.13;5013455;28;20054;-89
2022/06/24 05:59:49;;;;;;;;;;;;;;;23.14;100.00;99401.56;5012423;28;20405;-83
2022/06/24 06:02:14;;;;;;;;;;;;;;;23.15;98.69;99400.56;5012784;28;19960;-83
2022/06/24 06:04:39;;;;;;;;;;;;;;;23.22;98.68;99407.13;5012975;28;19913;-84
2022/06/24 06:07:05;;;;;;;;;;;;;;;23.17;97.40;99398.56;5012825;28;20385;-89
2022/06/24 06:09:30;;;;;;;;;;;;;;;23.08;96.52;99402.13;5005481;28;19932;-88
2022/06/24 06:11:56;;;;;;;;;;;;;;;23.00;96.54;99399.28;4996514;28;20416;-84
2022/06/24 06:14:22;;;;;;;;;;;;;;;22.92;97.24;99404.56;4996680;28;20064;-85
2022/06/24 06:16:47;;;;;;;;;;;;;;;22.98;97.75;99409.41;4996586;28;20283;-83
2022/06/24 06:19:12;;;;;;;;;;;;;;;22.92;97.61;99410.00;4996601;28;19938;-88
2022/06/24 06:21:37;;;;;;;;;;;;;;;22.87;97.55;99412.28;5013603;28;20391;-87
2022/06/24 06:24:04;;;;;;;;;;;;;;;22.70;98.87;99412.97;4996255;28;19967;-83
2022/06/24 06:26:29;;;;;;;;;;;;;;;22.55;98.67;99417.09;4999203;28;20298;-89
2022/06/24 06:28:55;;;;;;;;;;;;;;;22.58;99.07;99418.66;5033282;28;19927;-88
2022/06/24 06:31:20;;;;;;;;;;;;;;;22.56;100.00;99424.22;5015721;28;19928;-88
2022/06/24 06:33:45;;;;;;;;;;;;;;;22.61;100.00;99416.53;5015060;28;19937;-86
2022/06/24 06:36:11;;;;;;;;;;;;;;;22.65;99.48;99426.06;5014969;28;20389;-84
2022/06/24 06:38:37;;;;;;;;;;;;;;;22.75;100.00;99424.22;4995954;28;19929;-84
2022/06/24 06:41:03;;;;;;;;;;;;;;;22.74;99.42;99427.97;4995598;28;19917;-88
2022/06/24 06:43:29;;;;;;;;;;;;;;;22.80;98.91;99427.38;4995602;28;20413;-87
2022/06/24 06:45:54;;;;;;;;;;;;;;;22.90;98.97;99422.81;4995216;28;20024;-83
2022/06/24 06:48:20;;;;;;;;;;;;;;;23.12;99.48;99425.28;4994463;28;19979;-88
2022/06/24 06:50:46;;;;;;;;;;;;;;;23.33;98.70;99420.56;4994586;28;20308;-87
2022/06/24 06:53:11;;;;;;;;;;;;;;;23.69;96.80;99426.25;4994312;28;20033;-87
2022/06/24 06:55:36;;;;;;;;;;;;;;;24.00;95.42;99425.03;4994521;28;19984;-84
2022/06/24 06:58:02;;;;;;;;;;;;;;;23.94;92.96;99436.44;4994307;28;20395;-87
2022/06/24 07:00:27;;;;;;;;;;;;;;;24.02;93.08;99439.34;5012194;28;19950;-84
2022/06/24 07:02:53;;;;;;;;;;;;;;;24.03;91.86;99430.16;5012708;28;19938;-84
2022/06/24 07:05:18;;;;;;;;;;;;;;;23.96;91.52;99431.72;4991437;28;19973;-88
2022/06/24 07:07:44;;;;;;;;;;;;;;;23.77;92.05;99429.06;4991690;28;19931;-85
2022/06/24 07:10:09;;;;;;;;;;;;;;;23.72;91.52;99432.25;4992053;28;20005;-86
2022/06/24 07:12:34;;;;;;;;;;;;;;;23.60;92.56;99435.25;4992049;28;19946;-85
2022/06/24 07:14:59;;;;;;;;;;;;;;;23.54;93.36;99422.28;5008433;28;19931;-85
2022/06/24 07:17:25;;;;;;;;;;;;;;;23.62;93.67;99422.38;5008633;28;19934;-84
2022/06/24 07:19:50;;;;;;;;;;;;;;;23.78;92.53;99419.91;4993292;28;19930;-85
2022/06/24 07:22:15;;;;;;;;;;;;;;;24.31;91.37;99424.63;4992211;28;19958;-85
2022/06/24 07:24:41;;;;;;;;;;;;;;;24.66;88.27;99412.97;4993372;28;19923;-87
2022/06/24 07:27:07;;;;;;;;;;;;;;;24.93;86.11;99415.66;4991946;28;20472;-86
2022/06/24 07:29:33;;;;;;;;;;;;;;;25.02;83.85;99413.88;4993271;28;19991;-83
2022/06/24 07:32:03;;;;;;;;;;;;;;;25.04;82.96;99417.28;4993728;28;19928;-87
2022/06/24 07:34:30;;;;;;;;;;;;;;;25.02;82.21;99414.72;4992116;28;19930;-88
2022/06/24 07:36:59;;;;;;;;;;;;;;;24.87;82.25;99427.16;4992203;28;20318;-86
2022/06/24 07:39:25;;;;;;;;;;;;;;;24.99;83.09;99416.91;4993134;28;19932;-84
2022/06/24 07:41:51;;;;;;;;;;;;;;;25.40;83.33;99419.00;4991700;28;19947;-87
2022/06/24 07:44:16;;;;;;;;;;;;;;;26.06;78.94;99416.59;4991553;28;19988;-83
2022/06/24 07:46:42;;;;;;;;;;;;;;;25.96;75.63;99412.06;4991801;28;19960;-86
2022/06/24 07:49:07;;;;;;;;;;;;;;;25.77;74.98;99412.31;4991284;28;19934;-83
2022/06/24 07:51:32;;;;;;;;;;;;;;;25.70;76.19;99418.56;4991590;28;20071;-86
2022/06/24 07:53:58;;;;;;;;;;;;;;;25.88;77.11;99403.03;4991687;28;20403;-86
2022/06/24 07:59:07;;;;;;;;;;;;;;;27.30;69.71;99407.47;4993154;28;20299;-83
2022/06/24 08:01:33;;;;;;;;;;;;;;;27.85;66.79;99405.72;4992036;28;19955;-86
2022/06/24 08:04:00;;;;;;;;;;;;;;;28.18;66.33;99407.38;4991272;28;20454;-85
2022/06/24 08:06:25;;;;;;;;;;;;;;;28.58;64.89;99398.16;4990327;28;20374;-83
2022/06/24 08:08:51;;;;;;;;;;;;;;;28.74;62.15;99397.22;4993394;28;19936;-86
2022/06/24 08:11:17;;;;;;;;;;;;;;;28.55;62.17;99389.47;4994440;28;20459;-83
2022/06/24 08:13:42;;;;;;;;;;;;;;;28.98;62.86;99384.22;4993937;28;19940;-83
2022/06/24 08:16:07;;;;;;;;;;;;;;;29.17;61.05;99380.19;5010541;28;20022;-83
2022/06/24 08:18:33;;;;;;;;;;;;;;;29.39;59.84;99377.41;4994221;28;19925;-86
2022/06/24 08:20:58;;;;;;;;;;;;;;;29.89;60.39;99379.53;4994116;28;20818;-82
2022/06/24 08:23:23;;;;;;;;;;;;;;;29.89;56.16;99378.66;4993939;28;19966;-82
2022/06/24 08:25:49;;;;;;;;;;;;;;;30.03;57.19;99381.44;4996332;28;20313;-86
2022/06/24 08:28:15;;;;;;;;;;;;;;;29.76;56.42;99368.34;5011233;28;19943;-85
2022/06/24 08:30:40;;;;;;;;;;;;;;;30.04;58.56;99366.66;5013602;28;20029;-86
2022/06/24 08:33:06;;;;;;;;;;;;;;;30.34;56.12;99362.91;5013098;28;20004;-83
2022/06/24 08:35:31;;;;;;;;;;;;;;;30.50;55.43;99362.69;5014121;28;20319;-83
2022/06/24 08:37:57;;;;;;;;;;;;;;;29.99;55.87;99357.28;5013303;28;20388;-85
2022/06/24 08:40:24;;;;;;;;;;;;;;;29.61;56.93;99359.22;5006307;28;19943;-82
2022/06/24 08:42:53;;;;;;;;;;;;;;;29.63;54.89;99363.50;4995042;28;19936;-83
2022/06/24 08:45:18;;;;;;;;;;;;;;;29.65;53.85;99360.56;4995983;28;19966;-85
2022/06/24 08:47:45;;;;;;;;;;;;;;;29.84;56.05;99350.94;4996439;28;19968;-86
2022/06/24 08:50:11;;;;;;;;;;;;;;;30.17;51.52;99353.13;4994103;28;20390;-83
2022/06/24 08:52:39;;;;;;;;;;;;;;;30.35;50.91;99353.63;4993430;28;19934;-84
2022/06/24 08:55:05;;;;;;;;;;;;;;;30.53;52.71;99356.81;4994542;28;19973;-85
2022/06/24 08:57:31;;;;;;;;;;;;;;;30.31;50.66;99352.28;4992558;28;19933;-82
2022/06/24 08:59:56;;;;;;;;;;;;;;;30.08;51.50;99351.56;4993043;28;20391;-85
2022/06/24 09:02:22;;;;;;;;;;;;;;;30.03;56.14;99354.00;4995746;28;20369;-85
2022/06/24 09:04:47;;;;;;;;;;;;;;;30.04;53.43;99344.72;4995724;28;20040;-84
2022/06/24 09:07:25;;;;;;;;;;;;;;;30.02;53.70;99346.81;4994604;28;20425;-84
2022/06/24 09:10:01;;;;;;;;;;;;;;;30.23;51.30;99338.69;4995295;28;19921;-85
2022/06/24 09:12:30;;;;;;;;;;;;;;;30.79;51.55;99351.66;4992938;28;19933;-82
2022/06/24 09:15:00;;;;;;;;;;;;;;;31.16;51.78;99353.31;4994222;28;20013;-84
2022/06/24 09:17:29;;;;;;;;;;;;;;;31.40;52.08;99349.34;4994369;28;19974;-83
2022/06/24 09:20:02;;;;;;;;;;;;;;;31.50;47.80;99349.84;5009428;28;19943;-85
2022/06/24 09:22:28;;;;;;;;;;;;;;;31.07;49.81;99353.66;4993930;28;19942;-85
2022/06/24 09:24:53;;;;;;;;;;;;;;;31.08;48.18;99352.59;4997953;28;20038;-82
2022/06/24 09:27:20;;;;;;;;;;;;;;;31.08;49.31;99358.06;5003941;28;19926;-85
2022/06/24 09:29:47;;;;;;;;;;;;;;;31.63;46.78;99364.53;5013763;28;19930;-85
2022/06/24 09:32:12;;;;;;;;;;;;;;;32.12;46.43;99356.22;5014733;28;20281;-85
2022/06/24 09:34:56;;;;;;;;;;;;;;;32.28;46.67;99344.88;5012947;28;19934;-81
2022/06/24 09:37:33;;;;;;;;;;;;;;;32.26;45.12;99351.66;5014634;28;19986;-85
2022/06/24 09:40:13;;;;;;;;;;;;;;;31.90;44.66;99351.84;5014541;28;20020;-82
2022/06/24 09:42:39;;;;;;;;;;;;;;;31.90;47.57;99357.34;4998535;28;19929;-85
2022/06/24 09:45:04;;;;;;;;;;;;;;;31.68;44.25;99352.94;4986633;28;19980;-84
2022/06/24 09:47:29;;;;;;;;;;;;;;;31.64;44.44;99362.63;4995152;28;20080;-84
2022/06/24 09:49:56;;;;;;;;;;;;;;;31.74;45.85;99352.13;4994668;28;20064;-81
2022/06/24 09:52:21;;;;;;;;;;;;;;;32.33;42.70;99353.38;4995177;28;20019;-84
2022/06/24 09:54:47;;;;;;;;;;;;;;;32.24;41.61;99356.50;4993691;28;20018;-82
2022/06/24 09:57:12;;;;;;;;;;;;;;;32.10;44.26;99358.34;4994736;28;20025;-82
2022/06/24 10:02:23;;;;;;;;;;;;;;;31.94;45.97;99348.50;4994669;28;19954;-84
2022/06/24 10:04:50;;;;;;;;;;;;;;;31.85;49.72;99351.56;4994305;28;19921;-82
2022/06/24 10:07:16;;;;;;;;;;;;;;;31.88;48.63;99348.44;5013350;28;20366;-82
2022/06/24 10:09:42;;;;;;;;;;;;;;;32.18;47.70;99358.16;5012507;28;20044;-82
2022/06/24 10:12:08;;;;;;;;;;;;;;;32.47;49.05;99346.06;4985858;28;19931;-82
2022/06/24 10:14:33;;;;;;;;;;;;;;;33.22;45.93;99339.28;4975513;28;20495;-82
2022/06/24 10:16:59;;;;;;;;;;;;;;;33.63;44.00;99341.88;4993171;28;19949;-82
2022/06/24 10:19:26;;;;;;;;;;;;;;;34.04;43.16;99341.63;4975968;28;20282;-83
2022/06/24 10:21:51;;;;;;;;;;;;;;;33.87;41.73;99343.13;4976830;28;19961;-84
2022/06/24 10:24:17;;;;;;;;;;;;;;;32.77;41.24;99350.22;4994567;28;19926;-83
2022/06/24 10:26:45;;;;;;;;;;;;;;;32.71;42.50;99362.91;5003615;28;20383;-82
2022/06/24 10:29:13;;;;;;;;;;;;;;;32.77;44.21;99356.53;5015494;28;20021;-82
2022/06/24 10:31:41;;;;;;;;;;;;;;;32.92;46.17;99356.41;5019049;28;19929;-85
2022/06/24 10:34:07;;;;;;;;;;;;;;;32.62;45.51;99353.09;4996803;28;19943;-84
2022/06/24 10:36:32;;;;;;;;;;;;;;;32.11;45.32;99349.00;4996205;28;20587;-84
2022/06/24 10:39:18;;;;;;;;;;;;;;;31.83;47.29;99348.16;5013201;28;19909;-85
2022/06/24 10:41:43;;;;;;;;;;;;;;;31.43;46.41;99343.44;5013600;28;19998;-82
2022/06/24 10:44:28;;;;;;;;;;;;;;;31.04;48.04;99343.88;4995469;28;19980;-82
2022/06/24 10:47:12;;;;;;;;;;;;;;;30.78;49.74;99330.72;5013578;28;20445;-83
2022/06/24 10:49:54;;;;;;;;;;;;;;;30.61;49.25;99325.66;4995780;28;20022;-82
2022/06/24 10:52:38;;;;;;;;;;;;;;;30.47;52.66;99319.16;4995966;28;20025;-84
2022/06/24 10:55:21;;;;;;;;;;;;;;;30.39;47.87;99315.66;4994796;28;19985;-82
2022/06/24 10:57:49;;;;;;;;;;;;;;;30.39;49.62;99311.03;5011901;28;19929;-82
2022/06/24 11:00:35;;;;;;;;;;;;;;;30.27;49.19;99312.56;4994974;28;19967;-84
2022/06/24 11:03:03;;;;;;;;;;;;;;;30.06;51.42;99309.72;4983779;28;20283;-82
2022/06/24 11:05:32;;;;;;;;;;;;;;;30.10;49.15;99304.72;5013014;28;20033;-83
2022/06/24 11:07:59;;;;;;;;;;;;;;;30.02;47.55;99313.03;5012911;28;19934;-83
2022/06/24 11:10:29;;;;;;;;;;;;;;;29.79;50.19;99312.28;4995297;28;19928;-84
2022/06/24 11:13:26;;;;;;;;;;;;;;;29.83;49.81;99311.72;5013061;28;19952;-82
2022/06/24 11:15:54;;;;;;;;;;;;;;;29.58;50.49;99310.25;4995130;28;19972;-83
2022/06/24 11:18:21;;;;;;;;;;;;;;;29.48;51.48;99315.16;4995308;28;20030;-84
2022/06/24 11:20:47;;;;;;;;;;;;;;;29.10;52.75;99305.25;4995120;28;19976;-82
2022/06/24 11:23:14;;;;;;;;;;;;;;;28.99;50.96;99306.50;5012756;28;19931;-82
2022/06/24 11:25:40;;;;;;;;;;;;;;;28.94;54.04;99314.44;5012981;28;19928;-82
2022/06/24 11:28:16;;;;;;;;;;;;;;;28.99;50.71;99316.59;5011648;28;19930;-82
2022/06/24 11:30:41;;;;;;;;;;;;;;;28.98;47.68;99317.66;5014982;28;19924;-82
2022/06/24 11:33:07;;;;;;;;;;;;;;;28.87;47.77;99315.31;5032910;28;19923;-82
2022/06/24 11:35:33;;;;;;;;;;;;;;;29.01;50.10;99317.28;5014539;28;19972;-83
2022/06/24 11:37:58;;;;;;;;;;;;;;;29.11;49.92;99317.91;5015835;28;20041;-82
2022/06/24 11:40:25;;;;;;;;;;;;;;;29.18;49.17;99319.72;5014300;28;19941;-84
2022/06/24 11:42:52;;;;;;;;;;;;;;;29.30;50.01;99317.38;4999662;28;19984;-85
2022/06/24 11:45:30;;;;;;;;;;;;;;;29.69;50.77;99312.56;4993238;28;19941;-82
2022/06/24 11:47:56;;;;;;;;;;;;;;;30.05;50.50;99305.25;5011205;28;19929;-83
2022/06/24 11:50:21;;;;;;;;;;;;;;;30.44;46.47;99304.97;4994111;28;20293;-85
2022/06/24 11:52:47;;;;;;;;;;;;;;;30.79;46.96;99307.69;5011195;28;20009;-82
2022/06/24 11:55:26;;;;;;;;;;;;;;;30.92;46.62;99307.00;5011274;28;20063;-82
2022/06/24 11:57:55;;;;;;;;;;;;;;;30.66;44.72;99302.03;5011312;28;20071;-84
2022/06/24 12:00:21;;;;;;;;;;;;;;;30.51;49.32;99306.72;4994557;28;19930;-82
2022/06/24 12:02:47;;;;;;;;;;;;;;;30.48;48.25;99300.75;5011769;28;19934;-82
2022/06/24 12:05:12;;;;;;;;;;;;;;;30.44;49.76;99294.84;4993266;28;19961;-82
2022/06/24 12:07:39;;;;;;;;;;;;;;;30.41;48.92;99291.63;4993471;28;19930;-84
2022/06/24 12:10:06;;;;;;;;;;;;;;;30.08;49.41;99291.19;4993488;28;19935;-83
2022/06/24 12:12:31;;;;;;;;;;;;;;;29.96;49.23;99291.84;4989760;28;20674;-85
2022/06/24 12:14:56;;;;;;;;;;;;;;;29.71;48.37;99298.66;4993123;28;20008;-83
2022/06/24 12:17:22;;;;;;;;;;;;;;;29.63;48.13;99291.34;4997014;28;19929;-85
2022/06/24 12:19:56;;;;;;;;;;;;;;;29.38;47.92;99292.66;4996047;28;19931;-85
2022/06/24 12:22:21;;;;;;;;;;;;;;;29.41;51.05;99284.03;5014502;28;19949;-86
2022/06/24 12:24:47;;;;;;;;;;;;;;;29.48;48.73;99282.25;4995070;28;19993;-86
2022/06/24 12:27:13;;;;;;;;;;;;;;;29.39;47.88;99272.44;5020876;28;19930;-86
2022/06/24 12:29:42;;;;;;;;;;;;;;;29.44;50.03;99270.00;5013944;28;20040;-86
2022/06/24 12:32:08;;;;;;;;;;;;;;;29.32;49.45;99277.81;5031960;28;19927;-83
2022/06/24 12:34:35;;;;;;;;;;;;;;;29.27;50.72;99271.19;5013727;28;19937;-83
2022/06/24 12:37:04;;;;;;;;;;;;;;;29.28;50.87;99275.63;5031352;28;19957;-84
2022/06/24 12:39:34;;;;;;;;;;;;;;;29.26;50.46;99278.53;5010630;28;19940;-86
2022/06/24 12:42:00;;;;;;;;;;;;;;;29.13;49.88;99272.00;4993471;28;19944;-84
2022/06/24 12:44:42;;;;;;;;;;;;;;;29.17;54.80;99267.84;4994179;28;19937;-86
2022/06/24 12:52:40;;;;;;;;;;;;;;;28.56;51.38;99265.25;5011724;28;19930;-83
2022/06/24 12:55:07;;;;;;;;;;;;;;;28.40;56.61;99261.56;4995949;28;20458;-84
2022/06/24 12:57:33;;;;;;;;;;;;;;;28.33;55.39;99263.34;5015060;28;19937;-83
2022/06/24 12:59:58;;;;;;;;;;;;;;;28.17;55.14;99263.41;5015004;28;19930;-83